Waterford, CT (06385)

1:31 AM EDT on July 26, 2016 (GMT -0400)
Waterford EOC | | Change Station

Elev 24 ft 41.34 °N, 72.14 °W | Updated 1 minute ago

Clear
Clear
71.7 °F
Feels Like 71.7 °F
N
2.0
Wind Variable Wind from West
Gusts 4.0 mph

Today
High -- | Low -- °F
--% Chance of Precip.
Yesterday
High -- | Low -- °F
Precip. -- in
Pressure 29.81 in
Visibility 10.0 miles
Clouds Clear
Dew Point 70 °F
Humidity 94%
Rainfall 0.00 in
Snow Depth Not available.
5:38 AM 8:11 PM
Waning Gibbous, 58% visible
METAR KGON 260456Z AUTO 29006KT 10SM CLR 24/21 A2981 RMK AO2 SLP095 T02390211 403060200 $
Pressure 29.81 in
Visibility 10.0 miles
Clouds Clear
Dew Point 70 °F
Humidity 94%
Rainfall 0.00 in
Snow Depth Not available.
5:38 AM 8:11 PM
Waning Gibbous, 58% visible
METAR KGON 260456Z AUTO 29006KT 10SM CLR 24/21 A2981 RMK AO2 SLP095 T02390211 403060200 $

10-Day Weather Forecast

Almanac

Astronomy

Jul. 26, 2016 Rise Set
Actual Time
Civil Twilight
Nautical Twilight
Astronomical Twilight
Moon
Length of Visible Light
Length of Day
Tomorrow will be .
, % of the Moon is Illuminated

Today's Extremes

State Highs State Lows

Community

WunderPhotos

Upload Photos

1,927,538 photos uploaded!

WunderBlog® & News

Nearby

Air Quality

  Air Quality AQ Index Pollutant
Not available.

Snow Depth

Station Depth Elevation

Earthquake Activity

City Distance Mag. Time & Date
Minimum magnitude displayed is 2.5.

Coastal Water Temperatures

Place Temperature

Stations

Nearby Weather Stations

Station Location Temp. Windchill Dew Point Humidity Wind Precip. Elev Updated Type
                   

Watches & Warnings

There are currently no watches in effect.